National Weather Service United States Department of Commerce
Click Here for Latest Airport Weather Warnings
 
Latest Huntsville TAF


886
FTUS44 KHUN 221120
TAFHSV
TAF
KHSV 221120Z 2212/2312 VRB03KT P6SM FEW090=

Latest Muscle Shoals TAF


877
FTUS44 KHUN 221120
TAFMSL
TAF
KMSL 221120Z 2212/2312 VRB03KT P6SM FEW090=

CSV RNC BNA JWN M91 MRC SNH MSL HSV CMD 8A0 4A9 GAD MKL DYR FYE TUP JAU MMI CHA DNN BHM SCD EET TCL STF CTJ ALX LGC CCO 6A2 OPN Atlanta International Airport DCU SYI THA BGF MDQ FYM ASN ANB Fulton County Airport Dekalb Peachtree Airport Jasper Walker County Airport
Visible Imagery Infrared Imagery
Latest Surface Analysis
12-Hour Surface Forecast 24-Hour Surface Forecast
36-Hour Surface Forecast 48-Hour Surface Forecast

Observational Tools

Back to Main Huntsville Weather Forecast Office Page